createdAt,value
2023-05-10T00:01:14.616Z,72.01
2023-05-10T00:05:33.125Z,72.05
2023-05-10T00:09:50.885Z,71.77
2023-05-10T00:14:08.498Z,71.42
2023-05-10T00:18:26.190Z,71.17
2023-05-10T00:22:43.809Z,71.31
2023-05-10T00:27:02.190Z,71.68
2023-05-10T00:31:19.839Z,72.24
2023-05-10T00:35:40.259Z,72.44
2023-05-10T00:39:57.887Z,72.42
2023-05-10T00:44:15.621Z,72.99
2023-05-10T00:48:33.350Z,73.00
2023-05-10T00:52:51.739Z,73.02
2023-05-10T00:57:09.876Z,73.38
2023-05-10T01:01:27.745Z,73.70
2023-05-10T01:05:45.364Z,73.88
2023-05-10T01:10:03.419Z,73.66
2023-05-10T01:14:21.600Z,73.59
2023-05-10T01:18:43.399Z,73.64
2023-05-10T01:23:28.506Z,73.62
2023-05-10T01:28:39.868Z,73.82
2023-05-10T01:33:18.892Z,73.95
2023-05-10T01:37:58.183Z,74.04
2023-05-10T01:42:22.484Z,74.14
2023-05-10T01:46:41.562Z,74.54
2023-05-10T01:50:59.933Z,74.75
2023-05-10T01:55:21.657Z,75.04
2023-05-10T01:59:41.990Z,75.78
2023-05-10T02:04:01.306Z,76.48
2023-05-10T02:08:20.104Z,77.11
2023-05-10T02:12:43.517Z,77.89
2023-05-10T02:17:03.171Z,78.62
2023-05-10T02:21:23.824Z,78.87
2023-05-10T02:25:43.885Z,79.16
2023-05-10T02:30:02.693Z,79.84
2023-05-10T02:34:22.815Z,80.40
2023-05-10T02:38:41.753Z,80.26
2023-05-10T02:43:02.665Z,79.44
2023-05-10T02:47:21.123Z,78.66
2023-05-10T02:51:44.892Z,78.00
2023-05-10T02:56:08.301Z,77.97
2023-05-10T03:00:27.195Z,78.19
2023-05-10T03:04:45.010Z,78.82
2023-05-10T03:09:04.511Z,79.16
2023-05-10T03:13:37.657Z,79.46
2023-05-10T03:18:39.836Z,79.27
2023-05-10T03:23:27.899Z,79.07
2023-05-10T03:27:46.531Z,78.80
2023-05-10T03:32:04.475Z,78.13
2023-05-10T03:36:22.323Z,77.86
2023-05-10T03:40:40.634Z,77.27
2023-05-10T03:44:58.401Z,76.99
2023-05-10T03:49:15.870Z,76.30
2023-05-10T03:53:33.760Z,75.47
2023-05-10T03:57:51.391Z,74.94
2023-05-10T04:02:09.317Z,73.99
2023-05-10T04:06:27.149Z,73.24
2023-05-10T04:10:44.996Z,72.69
2023-05-10T04:15:02.833Z,71.96
2023-05-10T04:19:20.609Z,71.57
2023-05-10T04:23:39.595Z,70.96
2023-05-10T04:27:57.340Z,70.15
2023-05-10T04:32:15.056Z,69.79
2023-05-10T04:36:33.934Z,69.30
2023-05-10T04:40:52.007Z,68.61
2023-05-10T04:45:11.238Z,67.70
2023-05-10T04:49:29.279Z,67.59
2023-05-10T04:53:57.663Z,67.05
2023-05-10T04:58:22.799Z,66.02
2023-05-10T05:02:49.526Z,66.13
2023-05-10T05:07:07.276Z,65.06
2023-05-10T05:11:25.224Z,64.61
2023-05-10T05:15:42.900Z,63.68
2023-05-10T05:20:00.654Z,63.34
2023-05-10T05:24:18.318Z,62.16
2023-05-10T05:28:38.619Z,61.61
2023-05-10T05:32:56.355Z,61.67
2023-05-10T05:37:19.289Z,60.19
2023-05-10T05:41:37.014Z,59.92
2023-05-10T05:45:55.274Z,58.88
2023-05-10T05:50:13.009Z,59.09
2023-05-10T05:54:32.330Z,58.37
2023-05-10T05:58:50.848Z,61.55
2023-05-10T06:03:09.224Z,61.40
2023-05-10T06:07:26.983Z,61.02
2023-05-10T06:11:44.762Z,59.89
2023-05-10T06:16:04.074Z,59.05
2023-05-10T06:20:21.781Z,59.76
2023-05-10T06:24:39.388Z,57.24
2023-05-10T06:28:57.844Z,56.85
2023-05-10T06:33:17.145Z,55.46
2023-05-10T06:37:35.805Z,56.42
2023-05-10T06:41:53.689Z,55.67
2023-05-10T06:46:11.570Z,53.34
2023-05-10T06:50:28.675Z,53.27
2023-05-10T06:54:46.510Z,52.13
2023-05-10T06:59:04.273Z,52.69
2023-05-10T07:03:22.176Z,52.31
2023-05-10T07:07:39.933Z,51.45
2023-05-10T07:11:59.223Z,51.97
2023-05-10T07:16:16.934Z,49.56
2023-05-10T07:20:34.848Z,50.65
2023-05-10T07:24:52.766Z,50.76
2023-05-10T07:29:11.381Z,47.59
2023-05-10T07:33:28.997Z,50.65
2023-05-10T07:37:46.731Z,48.26
2023-05-10T07:42:04.502Z,47.54
2023-05-10T07:46:22.404Z,47.20
2023-05-10T07:50:40.100Z,45.91
2023-05-10T07:54:58.349Z,46.29
2023-05-10T07:59:18.234Z,43.25
2023-05-10T08:03:36.292Z,43.47
2023-05-10T08:07:53.872Z,44.99
2023-05-10T08:12:11.580Z,42.92
2023-05-10T08:16:30.180Z,43.49
2023-05-10T08:20:47.865Z,42.97
2023-05-10T08:25:06.565Z,43.62
2023-05-10T08:29:25.356Z,44.11
2023-05-10T08:33:45.948Z,44.90
2023-05-10T08:38:03.452Z,43.38
2023-05-10T08:42:26.278Z,38.78
2023-05-10T08:46:47.449Z,39.68
2023-05-10T08:51:05.729Z,38.70
2023-05-10T08:55:25.150Z,38.65
2023-05-10T08:59:42.917Z,38.82
2023-05-10T09:04:00.699Z,40.93
2023-05-10T09:08:18.994Z,38.37
2023-05-10T09:12:37.061Z,36.31
2023-05-10T09:16:56.699Z,36.70
2023-05-10T09:21:15.009Z,38.15
2023-05-10T09:25:34.942Z,36.46
2023-05-10T09:29:55.553Z,35.36
2023-05-10T09:34:20.717Z,35.82
2023-05-10T09:38:53.825Z,36.54
2023-05-10T09:43:12.372Z,35.90
2023-05-10T09:47:29.885Z,36.21
2023-05-10T09:51:48.011Z,33.55
2023-05-10T09:56:05.632Z,33.10
2023-05-10T10:00:23.330Z,33.57
2023-05-10T10:04:42.001Z,33.06
2023-05-10T10:09:00.217Z,30.77
2023-05-10T10:13:18.478Z,29.97
2023-05-10T10:17:39.880Z,28.00
2023-05-10T10:21:57.491Z,29.66
2023-05-10T10:26:16.660Z,28.79
2023-05-10T10:30:38.547Z,30.01
2023-05-10T10:34:57.948Z,28.51
2023-05-10T10:39:16.297Z,31.12
2023-05-10T10:43:34.127Z,27.69
2023-05-10T10:48:24.139Z,26.18
2023-05-10T10:52:43.620Z,26.37
2023-05-10T10:57:14.873Z,29.17
2023-05-10T11:01:36.795Z,25.78
2023-05-10T11:05:59.854Z,24.37
2023-05-10T11:10:22.543Z,22.74
2023-05-10T11:14:41.321Z,25.05
2023-05-10T11:19:09.544Z,21.71
2023-05-10T11:23:33.343Z,24.03
2023-05-10T11:27:51.546Z,22.48
2023-05-10T11:32:09.387Z,23.11
2023-05-10T11:36:37.613Z,24.42
2023-05-10T11:40:55.197Z,21.14
2023-05-10T11:45:13.197Z,25.80
2023-05-10T11:49:31.000Z,18.66
2023-05-10T11:53:48.934Z,20.49
2023-05-10T11:58:07.580Z,19.06
2023-05-10T12:02:26.002Z,18.63
2023-05-10T12:06:43.907Z,17.06
2023-05-10T12:11:11.834Z,17.65
2023-05-10T12:15:29.326Z,18.11
2023-05-10T12:19:47.715Z,17.73
2023-05-10T12:24:06.257Z,16.64
2023-05-10T12:28:24.147Z,15.99
2023-05-10T12:32:45.570Z,14.17
2023-05-10T12:37:05.399Z,15.05
2023-05-10T12:41:22.976Z,16.08
2023-05-10T12:45:40.788Z,14.96
2023-05-10T12:49:58.465Z,17.02
2023-05-10T12:54:16.157Z,16.90
2023-05-10T12:58:36.055Z,15.84
2023-05-10T13:02:54.862Z,15.02
2023-05-10T13:07:12.528Z,15.04
2023-05-10T13:11:30.288Z,11.77
2023-05-10T13:15:47.893Z,12.75
2023-05-10T13:20:06.278Z,14.30
2023-05-10T13:24:23.877Z,15.66
2023-05-10T13:28:41.965Z,14.80
2023-05-10T13:32:59.521Z,15.01
2023-05-10T13:37:17.407Z,13.36
2023-05-10T13:41:35.190Z,13.29
2023-05-10T13:45:53.699Z,14.22
2023-05-10T13:50:11.454Z,13.39
2023-05-10T13:54:31.640Z,15.48
2023-05-10T13:58:49.273Z,13.49
2023-05-10T14:03:08.196Z,13.79
2023-05-10T14:07:25.824Z,16.47
2023-05-10T14:11:44.561Z,20.11
2023-05-10T14:16:02.283Z,15.90
2023-05-10T14:20:20.017Z,13.37
2023-05-10T14:24:39.524Z,15.29
2023-05-10T14:28:57.520Z,14.78
2023-05-10T14:33:15.546Z,12.67
2023-05-10T14:37:33.866Z,13.17
2023-05-10T14:41:52.640Z,12.81
2023-05-10T14:46:10.593Z,12.88
2023-05-10T14:50:36.503Z,13.59
2023-05-10T14:54:55.133Z,13.05
2023-05-10T14:59:12.646Z,13.37
2023-05-10T15:03:31.774Z,14.60
2023-05-10T15:07:49.852Z,13.05
2023-05-10T15:12:07.644Z,13.07
2023-05-10T15:16:25.515Z,13.51
2023-05-10T15:20:43.372Z,14.11
2023-05-10T15:25:00.962Z,13.23
2023-05-10T15:29:21.290Z,13.75
2023-05-10T15:33:39.753Z,14.19
2023-05-10T15:37:57.601Z,15.52
2023-05-10T15:42:15.163Z,12.91
2023-05-10T15:46:32.750Z,13.25
2023-05-10T15:50:50.585Z,14.93
2023-05-10T15:55:13.347Z,14.39
2023-05-10T15:59:31.148Z,16.58
2023-05-10T16:03:48.968Z,15.51
2023-05-10T16:08:06.538Z,15.51
2023-05-10T16:12:23.929Z,15.60
2023-05-10T16:16:41.614Z,16.07
2023-05-10T16:20:59.726Z,17.21
2023-05-10T16:25:17.385Z,17.52
2023-05-10T16:29:35.396Z,17.73
2023-05-10T16:33:53.025Z,17.92
2023-05-10T16:38:11.616Z,21.14
2023-05-10T16:42:29.245Z,19.96
2023-05-10T16:46:47.245Z,21.60
2023-05-10T16:51:04.950Z,22.35
2023-05-10T16:55:25.473Z,23.78
2023-05-10T16:59:44.050Z,25.74
2023-05-10T17:04:03.000Z,30.23
2023-05-10T17:08:21.855Z,27.08
2023-05-10T17:12:39.585Z,27.19
2023-05-10T17:16:57.343Z,26.80
2023-05-10T17:21:15.140Z,28.11
2023-05-10T17:25:32.722Z,27.85
2023-05-10T17:29:50.405Z,30.03
2023-05-10T17:34:08.311Z,31.39
2023-05-10T17:38:26.194Z,34.19
2023-05-10T17:42:43.925Z,38.02
2023-05-10T17:47:02.241Z,42.01
2023-05-10T17:51:20.879Z,43.91
2023-05-10T17:55:42.396Z,45.72
2023-05-10T18:00:00.220Z,46.67
2023-05-10T18:04:18.038Z,48.55
2023-05-10T18:08:38.790Z,49.01
2023-05-10T18:12:58.720Z,49.75
2023-05-10T18:17:16.714Z,50.85
2023-05-10T18:21:34.554Z,51.06
2023-05-10T18:25:52.625Z,50.51
2023-05-10T18:30:12.601Z,50.77
2023-05-10T18:34:30.387Z,51.36
2023-05-10T18:38:48.123Z,51.48
2023-05-10T18:43:23.771Z,52.06
2023-05-10T18:47:41.537Z,52.33
2023-05-10T18:51:59.411Z,52.10
2023-05-10T18:56:17.040Z,51.80
2023-05-10T19:00:34.774Z,52.30
2023-05-10T19:04:52.516Z,52.86
2023-05-10T19:09:10.278Z,52.78
2023-05-10T19:13:29.034Z,53.50
2023-05-10T19:17:46.797Z,53.06
2023-05-10T19:22:04.837Z,52.28
2023-05-10T19:26:22.714Z,53.36
2023-05-10T19:30:40.233Z,53.62
2023-05-10T19:34:58.053Z,53.61
2023-05-10T19:39:16.856Z,54.44
2023-05-10T19:43:37.002Z,54.31
2023-05-10T19:47:54.966Z,53.79
2023-05-10T19:52:12.848Z,53.82
2023-05-10T19:56:33.442Z,53.72
2023-05-10T20:00:51.282Z,53.42
2023-05-10T20:05:09.349Z,53.53
2023-05-10T20:09:27.202Z,53.89
2023-05-10T20:13:44.753Z,53.97
2023-05-10T20:18:03.934Z,54.08
2023-05-10T20:22:21.549Z,53.48
2023-05-10T20:26:39.369Z,54.28
2023-05-10T20:30:56.908Z,54.08
2023-05-10T20:35:14.543Z,54.91
2023-05-10T20:39:32.081Z,54.64
2023-05-10T20:43:49.835Z,55.13
2023-05-10T20:48:07.906Z,55.23
2023-05-10T20:52:25.608Z,54.83
2023-05-10T20:56:43.203Z,54.97
2023-05-10T21:01:02.563Z,54.85
2023-05-10T21:05:20.191Z,55.16
2023-05-10T21:09:37.981Z,55.55
2023-05-10T21:13:55.502Z,55.41
2023-05-10T21:18:13.677Z,55.80
2023-05-10T21:22:31.090Z,56.19
2023-05-10T21:26:48.789Z,56.45
2023-05-10T21:31:06.716Z,56.15
2023-05-10T21:35:24.360Z,56.99
2023-05-10T21:39:41.839Z,56.92
2023-05-10T21:43:59.556Z,56.64
2023-05-10T21:48:17.536Z,56.81
2023-05-10T21:52:35.193Z,56.95
2023-05-10T21:56:53.045Z,57.32
2023-05-10T22:01:10.886Z,57.54
2023-05-10T22:05:28.398Z,58.18
2023-05-10T22:09:46.133Z,58.13
2023-05-10T22:14:03.712Z,58.78
2023-05-10T22:18:21.552Z,59.85
2023-05-10T22:22:39.161Z,59.97
2023-05-10T22:26:56.777Z,60.27
2023-05-10T22:31:14.617Z,60.04
2023-05-10T22:35:32.263Z,59.96
2023-05-10T22:39:50.069Z,60.54
2023-05-10T22:44:08.626Z,60.78
2023-05-10T22:48:26.278Z,60.88
2023-05-10T22:52:44.037Z,61.20
2023-05-10T22:57:01.606Z,61.68
2023-05-10T23:01:19.389Z,62.38
2023-05-10T23:05:36.975Z,62.22
2023-05-10T23:09:54.668Z,62.55
2023-05-10T23:14:12.177Z,62.46
2023-05-10T23:18:31.093Z,63.23
2023-05-10T23:22:49.740Z,63.03
2023-05-10T23:27:07.808Z,63.05
2023-05-10T23:31:25.332Z,63.86
2023-05-10T23:35:42.941Z,64.18
2023-05-10T23:40:00.468Z,63.63
2023-05-10T23:44:19.181Z,63.53
2023-05-10T23:48:36.423Z,63.56
2023-05-10T23:52:54.489Z,63.67
2023-05-10T23:57:14.972Z,64.13
